createdAt,value
2023-03-11T00:00:16.997Z,938.78
2023-03-11T00:01:16.957Z,938.77
2023-03-11T00:02:17.039Z,938.75
2023-03-11T00:03:16.970Z,938.89
2023-03-11T00:04:16.931Z,939.09
2023-03-11T00:05:16.953Z,938.95
2023-03-11T00:06:16.934Z,939.07
2023-03-11T00:07:16.890Z,938.90
2023-03-11T00:08:16.932Z,939.01
2023-03-11T00:09:16.866Z,939.03
2023-03-11T00:10:16.851Z,939.21
2023-03-11T00:11:16.840Z,939.18
2023-03-11T00:12:16.832Z,938.97
2023-03-11T00:13:16.862Z,939.15
2023-03-11T00:14:16.815Z,939.01
2023-03-11T00:15:16.782Z,938.96
2023-03-11T00:16:16.815Z,939.11
2023-03-11T00:17:16.793Z,939.02
2023-03-11T00:18:16.739Z,939.14
2023-03-11T00:19:16.788Z,939.08
2023-03-11T00:20:16.709Z,939.16
2023-03-11T00:21:16.745Z,939.24
2023-03-11T00:22:16.716Z,939.24
2023-03-11T00:23:16.704Z,939.23
2023-03-11T00:24:16.669Z,939.42
2023-03-11T00:25:16.698Z,939.59
2023-03-11T00:26:16.642Z,939.55
2023-03-11T00:27:16.624Z,939.65
2023-03-11T00:28:16.623Z,939.68
2023-03-11T00:29:16.629Z,939.74
2023-03-11T00:30:16.604Z,939.80
2023-03-11T00:31:16.619Z,940.00
2023-03-11T00:32:16.566Z,940.05
2023-03-11T00:33:16.546Z,940.04
2023-03-11T00:34:16.552Z,940.13
2023-03-11T00:35:16.529Z,940.21
2023-03-11T00:36:16.497Z,940.15
2023-03-11T00:37:16.480Z,940.29
2023-03-11T00:38:16.514Z,940.21
2023-03-11T00:39:16.455Z,940.11
2023-03-11T00:40:16.497Z,940.29
2023-03-11T00:41:16.455Z,940.33
2023-03-11T00:42:16.439Z,940.31
2023-03-11T00:43:16.405Z,940.22
2023-03-11T00:44:16.405Z,940.21
2023-03-11T00:45:16.393Z,940.51
2023-03-11T00:46:16.422Z,940.62
2023-03-11T00:47:16.387Z,940.46
2023-03-11T00:48:16.354Z,940.78
2023-03-11T00:49:16.356Z,940.33
2023-03-11T00:50:16.315Z,940.57
2023-03-11T00:51:16.394Z,940.53
2023-03-11T00:52:16.313Z,940.45
2023-03-11T00:53:16.278Z,940.52
2023-03-11T00:54:16.271Z,940.54
2023-03-11T00:55:16.267Z,940.47
2023-03-11T00:56:16.269Z,940.58
2023-03-11T00:57:16.227Z,940.93
2023-03-11T00:58:16.248Z,940.64
2023-03-11T00:59:16.212Z,940.67
2023-03-11T01:00:16.197Z,941.06
2023-03-11T01:01:16.234Z,940.71
2023-03-11T01:02:16.182Z,940.77
2023-03-11T01:03:16.155Z,940.67
2023-03-11T01:04:16.147Z,940.76
2023-03-11T01:05:16.159Z,940.77
2023-03-11T01:06:16.127Z,940.43
2023-03-11T01:07:16.153Z,940.44
2023-03-11T01:08:16.087Z,940.54
2023-03-11T01:09:16.073Z,940.51
2023-03-11T01:10:16.053Z,940.55
2023-03-11T01:11:16.095Z,940.66
2023-03-11T01:12:16.060Z,940.73
2023-03-11T01:13:16.043Z,940.78
2023-03-11T01:14:16.006Z,940.50
2023-03-11T01:15:16.009Z,940.78
2023-03-11T01:16:16.059Z,940.58
2023-03-11T01:17:15.986Z,940.78
2023-03-11T01:18:15.965Z,940.73
2023-03-11T01:19:15.950Z,940.77
2023-03-11T01:20:15.920Z,940.73
2023-03-11T01:21:15.949Z,940.87
2023-03-11T01:22:15.905Z,940.50
2023-03-11T01:23:15.942Z,940.63
2023-03-11T01:24:15.865Z,940.67
2023-03-11T01:25:15.853Z,940.70
2023-03-11T01:26:15.856Z,940.86
2023-03-11T01:27:15.860Z,940.73
2023-03-11T01:28:15.868Z,940.66
2023-03-11T01:29:15.805Z,940.68
2023-03-11T01:30:15.813Z,940.53
2023-03-11T01:31:15.890Z,940.58
2023-03-11T01:32:15.783Z,940.66
2023-03-11T01:33:15.779Z,940.50
2023-03-11T01:34:15.745Z,940.59
2023-03-11T01:35:15.834Z,940.43
2023-03-11T01:36:15.735Z,940.47
2023-03-11T01:37:15.701Z,940.53
2023-03-11T01:38:15.693Z,940.69
2023-03-11T01:39:15.682Z,940.79
2023-03-11T01:40:15.695Z,940.53
2023-03-11T01:41:15.690Z,940.56
2023-03-11T01:42:15.686Z,940.59
2023-03-11T01:43:15.652Z,940.61
2023-03-11T01:44:15.648Z,940.38
2023-03-11T01:45:15.601Z,940.50
2023-03-11T01:46:15.731Z,940.55
2023-03-11T01:47:15.602Z,940.58
2023-03-11T01:48:15.586Z,940.68
2023-03-11T01:49:15.565Z,940.73
2023-03-11T01:50:15.527Z,940.72
2023-03-11T01:51:15.513Z,940.79
2023-03-11T01:52:15.530Z,940.75
2023-03-11T01:53:15.531Z,940.71
2023-03-11T01:54:15.486Z,940.72
2023-03-11T01:55:15.494Z,940.67
2023-03-11T01:56:15.453Z,940.96
2023-03-11T01:57:15.500Z,940.95
2023-03-11T01:58:15.497Z,940.77
2023-03-11T01:59:15.435Z,940.74
2023-03-11T02:00:15.404Z,940.76
2023-03-11T02:01:15.415Z,940.93
2023-03-11T02:02:15.403Z,940.97
2023-03-11T02:03:15.447Z,940.82
2023-03-11T02:04:15.382Z,940.87
2023-03-11T02:05:15.360Z,940.70
2023-03-11T02:06:15.311Z,940.68
2023-03-11T02:07:15.313Z,940.69
2023-03-11T02:08:15.290Z,940.76
2023-03-11T02:09:15.317Z,940.78
2023-03-11T02:10:15.278Z,940.67
2023-03-11T02:11:15.259Z,940.79
2023-03-11T02:12:15.238Z,940.77
2023-03-11T02:13:15.262Z,940.69
2023-03-11T02:14:15.238Z,940.71
2023-03-11T02:15:15.208Z,940.78
2023-03-11T02:16:15.263Z,940.45
2023-03-11T02:17:15.186Z,940.64
2023-03-11T02:18:15.216Z,940.80
2023-03-11T02:19:15.157Z,940.84
2023-03-11T02:20:15.137Z,940.82
2023-03-11T02:21:15.152Z,940.71
2023-03-11T02:22:15.128Z,940.62
2023-03-11T02:23:15.113Z,940.83
2023-03-11T02:24:15.126Z,940.90
2023-03-11T02:25:15.102Z,940.75
2023-03-11T02:26:15.069Z,940.67
2023-03-11T02:27:15.046Z,940.72
2023-03-11T02:28:15.035Z,940.73
2023-03-11T02:29:15.064Z,940.71
2023-03-11T02:30:15.040Z,940.68
2023-03-11T02:31:15.072Z,940.80
2023-03-11T02:32:15.075Z,940.68
2023-03-11T02:33:14.990Z,940.50
2023-03-11T02:34:14.964Z,940.71
2023-03-11T02:35:14.943Z,940.89
2023-03-11T02:36:14.969Z,940.80
2023-03-11T02:37:14.923Z,940.69
2023-03-11T02:38:14.905Z,940.82
2023-03-11T02:39:14.893Z,940.93
2023-03-11T02:40:14.937Z,940.80
2023-03-11T02:41:14.888Z,940.82
2023-03-11T02:42:14.858Z,940.81
2023-03-11T02:43:14.849Z,940.86
2023-03-11T02:44:14.865Z,940.87
2023-03-11T02:45:14.820Z,940.86
2023-03-11T02:46:14.864Z,940.79
2023-03-11T02:47:14.801Z,940.75
2023-03-11T02:48:14.771Z,940.67
2023-03-11T02:49:14.757Z,940.60
2023-03-11T02:50:14.737Z,940.79
2023-03-11T02:51:14.766Z,940.86
2023-03-11T02:52:14.751Z,940.69
2023-03-11T02:53:14.707Z,940.81
2023-03-11T02:54:14.700Z,940.91
2023-03-11T02:55:14.702Z,940.71
2023-03-11T02:56:14.697Z,940.74
2023-03-11T02:57:14.666Z,940.81
2023-03-11T02:58:14.645Z,940.90
2023-03-11T02:59:14.632Z,940.89
2023-03-11T03:00:14.610Z,940.90
2023-03-11T03:01:14.700Z,940.96
2023-03-11T03:02:14.601Z,940.88
2023-03-11T03:03:14.569Z,940.63
2023-03-11T03:04:14.661Z,940.68
2023-03-11T03:05:14.542Z,940.70
2023-03-11T03:06:14.572Z,940.66
2023-03-11T03:07:14.559Z,940.78
2023-03-11T03:08:14.507Z,940.89
2023-03-11T03:09:14.503Z,940.79
2023-03-11T03:10:14.498Z,940.97
2023-03-11T03:11:14.486Z,940.87
2023-03-11T03:12:14.483Z,940.84
2023-03-11T03:13:14.448Z,940.83
2023-03-11T03:14:14.446Z,940.64
2023-03-11T03:15:14.421Z,940.43
2023-03-11T03:16:14.412Z,940.90
2023-03-11T03:17:14.583Z,940.91
2023-03-11T03:18:14.392Z,940.69
2023-03-11T03:19:14.372Z,940.87
2023-03-11T03:20:14.377Z,940.90
2023-03-11T03:21:14.343Z,940.69
2023-03-11T03:22:14.345Z,940.59
2023-03-11T03:23:14.338Z,940.75
2023-03-11T03:24:14.310Z,940.82
2023-03-11T03:25:14.290Z,940.86
2023-03-11T03:26:14.272Z,940.82
2023-03-11T03:27:14.280Z,940.96
2023-03-11T03:28:14.251Z,940.83
2023-03-11T03:29:14.231Z,940.73
2023-03-11T03:30:14.221Z,940.84
2023-03-11T03:31:14.198Z,940.79
2023-03-11T03:32:14.300Z,940.81
2023-03-11T03:33:14.191Z,940.84
2023-03-11T03:34:14.168Z,940.86
2023-03-11T03:35:14.162Z,940.79
2023-03-11T03:36:14.195Z,940.84
2023-03-11T03:37:14.163Z,940.87
2023-03-11T03:38:14.123Z,940.72
2023-03-11T03:39:14.099Z,940.74
2023-03-11T03:40:14.134Z,940.94
2023-03-11T03:41:14.089Z,940.86
2023-03-11T03:42:14.096Z,940.84
2023-03-11T03:43:14.058Z,940.95
2023-03-11T03:44:14.061Z,940.88
2023-03-11T03:45:14.026Z,940.80
2023-03-11T03:46:14.052Z,940.88
2023-03-11T03:47:14.027Z,940.90
2023-03-11T03:48:14.012Z,940.88
2023-03-11T03:49:13.981Z,940.96
2023-03-11T03:50:13.988Z,940.98
2023-03-11T03:51:13.949Z,941.02
2023-03-11T03:52:13.967Z,941.04
2023-03-11T03:53:13.925Z,940.87
2023-03-11T03:54:13.902Z,940.87
2023-03-11T03:55:13.899Z,941.01
2023-03-11T03:56:13.888Z,940.93
2023-03-11T03:57:13.897Z,940.94
2023-03-11T03:58:13.855Z,941.02
2023-03-11T03:59:13.857Z,940.99
2023-03-11T04:00:13.832Z,940.99
2023-03-11T04:01:13.858Z,941.04
2023-03-11T04:02:13.879Z,941.06
2023-03-11T04:03:13.843Z,941.10
2023-03-11T04:04:13.857Z,941.19
2023-03-11T04:05:13.763Z,941.19
2023-03-11T04:06:13.782Z,941.19
2023-03-11T04:07:13.744Z,941.18
2023-03-11T04:08:13.740Z,941.28
2023-03-11T04:09:13.730Z,941.30
2023-03-11T04:10:13.715Z,941.25
2023-03-11T04:11:13.700Z,941.20
2023-03-11T04:12:13.689Z,941.28
2023-03-11T04:13:13.709Z,941.33
2023-03-11T04:14:13.674Z,941.34
2023-03-11T04:15:13.648Z,941.25
2023-03-11T04:16:13.637Z,941.14
2023-03-11T04:17:13.617Z,941.14
2023-03-11T04:18:13.706Z,941.14
2023-03-11T04:19:13.603Z,941.11
2023-03-11T04:20:13.566Z,941.08
2023-03-11T04:21:13.564Z,941.05
2023-03-11T04:22:13.563Z,941.06
2023-03-11T04:23:13.542Z,941.10
2023-03-11T04:24:13.548Z,941.07
2023-03-11T04:25:13.512Z,941.07
2023-03-11T04:26:13.516Z,941.12
2023-03-11T04:27:13.471Z,941.18
2023-03-11T04:28:13.469Z,941.21
2023-03-11T04:29:13.488Z,941.32
2023-03-11T04:30:13.457Z,941.34
2023-03-11T04:31:13.457Z,941.37
2023-03-11T04:32:13.435Z,941.36
2023-03-11T04:33:13.413Z,941.32
2023-03-11T04:34:13.430Z,941.35
2023-03-11T04:35:13.394Z,941.30
2023-03-11T04:36:13.364Z,941.30
2023-03-11T04:37:13.361Z,941.32
2023-03-11T04:38:13.329Z,941.28
2023-03-11T04:39:13.345Z,941.31
2023-03-11T04:40:13.315Z,941.34
2023-03-11T04:41:13.297Z,941.32
2023-03-11T04:42:13.282Z,941.24
2023-03-11T04:43:13.284Z,941.25
2023-03-11T04:44:13.278Z,941.31
2023-03-11T04:45:13.222Z,941.31
2023-03-11T04:46:13.254Z,941.37
2023-03-11T04:47:13.257Z,941.43
2023-03-11T04:48:13.200Z,941.40
2023-03-11T04:49:13.190Z,941.40
2023-03-11T04:50:13.377Z,941.39
2023-03-11T04:51:13.162Z,941.41
2023-03-11T04:52:13.187Z,941.39
2023-03-11T04:53:13.145Z,941.32
2023-03-11T04:54:13.124Z,941.37
2023-03-11T04:55:13.095Z,941.34
2023-03-11T04:56:13.108Z,941.41
2023-03-11T04:57:13.076Z,941.42
2023-03-11T04:58:13.103Z,941.44
2023-03-11T04:59:13.063Z,941.46
2023-03-11T05:00:13.036Z,941.41
2023-03-11T05:01:13.071Z,941.37
2023-03-11T05:02:13.125Z,941.38
2023-03-11T05:03:13.067Z,941.44
2023-03-11T05:04:13.067Z,941.42
2023-03-11T05:05:12.989Z,941.41
2023-03-11T05:06:12.958Z,941.51
2023-03-11T05:07:12.967Z,941.51
2023-03-11T05:08:12.950Z,941.50
2023-03-11T05:09:12.935Z,941.50
2023-03-11T05:10:12.919Z,941.50
2023-03-11T05:11:12.890Z,941.46
2023-03-11T05:12:12.929Z,941.52
2023-03-11T05:13:12.867Z,941.60
2023-03-11T05:14:12.846Z,941.61
2023-03-11T05:15:12.848Z,941.60
2023-03-11T05:16:12.864Z,941.60
2023-03-11T05:17:12.844Z,941.60
2023-03-11T05:18:12.836Z,941.57
2023-03-11T05:19:12.793Z,941.57
2023-03-11T05:20:12.801Z,941.59
2023-03-11T05:21:12.766Z,941.58
2023-03-11T05:22:12.755Z,941.57
2023-03-11T05:23:12.774Z,941.64
2023-03-11T05:24:12.739Z,941.66
2023-03-11T05:25:12.719Z,941.69
2023-03-11T05:26:12.738Z,941.69
2023-03-11T05:27:12.714Z,941.72
2023-03-11T05:28:12.685Z,941.80
2023-03-11T05:29:12.672Z,941.91
2023-03-11T05:30:12.647Z,941.85
2023-03-11T05:31:12.690Z,941.83
2023-03-11T05:32:12.659Z,941.76
2023-03-11T05:33:12.603Z,941.82
2023-03-11T05:34:12.603Z,941.89
2023-03-11T05:35:12.593Z,941.92
2023-03-11T05:36:12.599Z,941.94
2023-03-11T05:37:12.566Z,941.92
2023-03-11T05:38:12.564Z,941.99
2023-03-11T05:39:12.545Z,942.08
2023-03-11T05:40:12.520Z,942.12
2023-03-11T05:41:12.528Z,942.19
2023-03-11T05:42:12.517Z,942.18
2023-03-11T05:43:12.483Z,942.10
2023-03-11T05:44:12.501Z,942.14
2023-03-11T05:45:12.450Z,942.12
2023-03-11T05:46:12.544Z,942.14
2023-03-11T05:47:12.465Z,942.14
2023-03-11T05:48:12.418Z,942.11
2023-03-11T05:49:12.400Z,942.10
2023-03-11T05:50:12.402Z,942.09
2023-03-11T05:51:12.372Z,942.10
2023-03-11T05:52:12.361Z,942.09
2023-03-11T05:53:12.382Z,942.16
2023-03-11T05:54:12.342Z,942.13
2023-03-11T05:55:12.430Z,942.18
2023-03-11T05:56:12.319Z,942.20
2023-03-11T05:57:12.305Z,942.18
2023-03-11T05:58:12.317Z,942.26
2023-03-11T05:59:13.781Z,942.28
2023-03-11T06:00:12.391Z,942.30
2023-03-11T06:01:12.241Z,942.27
2023-03-11T06:02:12.225Z,942.18
2023-03-11T06:03:12.252Z,942.29
2023-03-11T06:04:12.440Z,942.34
2023-03-11T06:05:13.689Z,942.27
2023-03-11T06:06:12.746Z,942.28
2023-03-11T06:07:12.196Z,942.24
2023-03-11T06:08:12.180Z,942.28
2023-03-11T06:09:12.145Z,942.31
2023-03-11T06:10:12.130Z,942.40
2023-03-11T06:11:12.105Z,942.35
2023-03-11T06:12:12.101Z,942.30
2023-03-11T06:13:12.118Z,942.30
2023-03-11T06:14:12.076Z,942.26
2023-03-11T06:15:12.080Z,942.30
2023-03-11T06:16:12.089Z,942.24
2023-03-11T06:17:12.040Z,942.31
2023-03-11T06:18:12.007Z,942.33
2023-03-11T06:19:12.048Z,942.30
2023-03-11T06:20:12.001Z,942.29
2023-03-11T06:21:11.982Z,942.33
2023-03-11T06:22:11.970Z,942.41
2023-03-11T06:23:11.954Z,942.38
2023-03-11T06:24:11.979Z,942.28
2023-03-11T06:25:11.928Z,942.29
2023-03-11T06:26:11.922Z,942.29
2023-03-11T06:27:11.920Z,942.27
2023-03-11T06:28:11.911Z,942.32
2023-03-11T06:29:11.904Z,942.38
2023-03-11T06:30:11.864Z,942.44
2023-03-11T06:31:11.923Z,942.42
2023-03-11T06:32:11.905Z,942.38
2023-03-11T06:33:11.821Z,942.41
2023-03-11T06:34:11.818Z,942.47
2023-03-11T06:35:11.812Z,942.43
2023-03-11T06:36:11.812Z,942.43
2023-03-11T06:37:11.760Z,942.44
2023-03-11T06:38:11.758Z,942.41
2023-03-11T06:39:11.737Z,942.45
2023-03-11T06:40:11.742Z,942.44
2023-03-11T06:41:11.752Z,942.46
2023-03-11T06:42:11.704Z,942.51
2023-03-11T06:43:11.682Z,942.54
2023-03-11T06:44:11.682Z,942.58
2023-03-11T06:45:11.696Z,942.54
2023-03-11T06:46:11.692Z,942.54
2023-03-11T06:47:11.694Z,942.52
2023-03-11T06:48:11.626Z,942.57
2023-03-11T06:49:11.609Z,942.57
2023-03-11T06:50:11.594Z,942.61
2023-03-11T06:51:11.605Z,942.63
2023-03-11T06:52:11.559Z,942.63
2023-03-11T06:53:11.562Z,942.68
2023-03-11T06:54:11.568Z,942.74
2023-03-11T06:55:11.565Z,942.73
2023-03-11T06:56:11.535Z,942.70
2023-03-11T06:57:11.514Z,942.70
2023-03-11T06:58:11.516Z,942.74
2023-03-11T06:59:11.478Z,942.74
2023-03-11T07:00:11.467Z,942.74
2023-03-11T07:01:11.548Z,942.76
2023-03-11T07:02:11.430Z,942.77
2023-03-11T07:03:11.424Z,942.78
2023-03-11T07:04:11.530Z,942.78
2023-03-11T07:05:11.415Z,942.76
2023-03-11T07:06:11.424Z,942.79
2023-03-11T07:07:11.413Z,942.84
2023-03-11T07:08:11.364Z,942.85
2023-03-11T07:09:11.360Z,942.87
2023-03-11T07:10:11.341Z,942.87
2023-03-11T07:11:11.331Z,942.88
2023-03-11T07:12:11.363Z,942.88
2023-03-11T07:13:11.344Z,942.82
2023-03-11T07:14:11.292Z,942.87
2023-03-11T07:15:11.278Z,942.85
2023-03-11T07:16:11.314Z,942.86
2023-03-11T07:17:11.273Z,942.86
2023-03-11T07:18:11.225Z,942.86
2023-03-11T07:19:11.213Z,942.81
2023-03-11T07:20:11.199Z,942.81
2023-03-11T07:21:11.190Z,942.85
2023-03-11T07:22:11.204Z,942.87
2023-03-11T07:23:11.176Z,942.87
2023-03-11T07:24:11.154Z,942.88
2023-03-11T07:25:11.146Z,942.90
2023-03-11T07:26:11.132Z,942.89
2023-03-11T07:27:11.141Z,942.88
2023-03-11T07:28:11.095Z,942.90
2023-03-11T07:29:11.091Z,942.93
2023-03-11T07:30:11.110Z,942.90
2023-03-11T07:31:11.088Z,942.94
2023-03-11T07:32:11.051Z,942.91
2023-03-11T07:33:11.061Z,942.96
2023-03-11T07:34:11.028Z,942.95
2023-03-11T07:35:11.007Z,942.95
2023-03-11T07:36:11.037Z,942.96
2023-03-11T07:37:10.982Z,942.99
2023-03-11T07:38:10.974Z,942.99
2023-03-11T07:39:10.975Z,943.03
2023-03-11T07:40:10.979Z,943.08
2023-03-11T07:41:10.922Z,943.10
2023-03-11T07:42:10.944Z,943.07
2023-03-11T07:43:10.901Z,943.05
2023-03-11T07:44:10.884Z,943.09
2023-03-11T07:45:10.887Z,943.13
2023-03-11T07:46:10.976Z,943.10
2023-03-11T07:47:10.875Z,943.15
2023-03-11T07:48:10.840Z,943.14
2023-03-11T07:49:10.827Z,943.21
2023-03-11T07:50:10.812Z,943.18
2023-03-11T07:51:10.794Z,943.20
2023-03-11T07:52:10.824Z,943.20
2023-03-11T07:53:10.796Z,943.26
2023-03-11T07:54:10.763Z,943.29
2023-03-11T07:55:10.772Z,943.27
2023-03-11T07:56:10.744Z,943.23
2023-03-11T07:57:10.723Z,943.27
2023-03-11T07:58:10.722Z,943.32
2023-03-11T07:59:10.723Z,943.38
2023-03-11T08:00:10.701Z,943.38
2023-03-11T08:01:10.678Z,943.35
2023-03-11T08:02:10.698Z,943.33
2023-03-11T08:03:10.695Z,943.29
2023-03-11T08:04:13.609Z,943.32
2023-03-11T08:05:10.631Z,943.35
2023-03-11T08:06:10.629Z,943.33
2023-03-11T08:07:10.626Z,943.37
2023-03-11T08:08:10.574Z,943.38
2023-03-11T08:09:10.591Z,943.38
2023-03-11T08:10:10.578Z,943.37
2023-03-11T08:11:10.545Z,943.39
2023-03-11T08:12:10.526Z,943.39
2023-03-11T08:13:10.511Z,943.39
2023-03-11T08:14:10.517Z,943.40
2023-03-11T08:15:10.494Z,943.46
2023-03-11T08:16:10.506Z,943.50
2023-03-11T08:17:10.464Z,943.48
2023-03-11T08:18:11.120Z,943.49
2023-03-11T08:19:10.443Z,943.49
2023-03-11T08:20:10.420Z,943.52
2023-03-11T08:21:10.408Z,943.54
2023-03-11T08:22:10.398Z,943.52
2023-03-11T08:23:10.388Z,943.51
2023-03-11T08:24:10.377Z,943.52
2023-03-11T08:25:10.351Z,943.52
2023-03-11T08:26:10.375Z,943.58
2023-03-11T08:27:10.321Z,943.53
2023-03-11T08:28:10.317Z,943.52
2023-03-11T08:29:10.337Z,943.48
2023-03-11T08:30:10.303Z,943.45
2023-03-11T08:31:10.375Z,943.47
2023-03-11T08:32:10.256Z,943.47
2023-03-11T08:33:10.266Z,943.49
2023-03-11T08:34:10.247Z,943.51
2023-03-11T08:35:10.270Z,943.49
2023-03-11T08:36:10.266Z,943.52
2023-03-11T08:37:10.193Z,943.56
2023-03-11T08:38:10.181Z,943.55
2023-03-11T08:39:10.314Z,943.54
2023-03-11T08:40:10.210Z,943.54
2023-03-11T08:41:10.163Z,943.52
2023-03-11T08:42:10.134Z,943.57
2023-03-11T08:43:10.208Z,943.61
2023-03-11T08:44:10.123Z,943.57
2023-03-11T08:45:10.124Z,943.63
2023-03-11T08:46:10.110Z,943.61
2023-03-11T08:47:10.090Z,943.60
2023-03-11T08:48:10.074Z,943.61
2023-03-11T08:49:10.060Z,943.63
2023-03-11T08:50:10.052Z,943.66
2023-03-11T08:51:10.011Z,943.65
2023-03-11T08:52:09.997Z,943.65
2023-03-11T08:53:09.991Z,943.63
2023-03-11T08:54:09.975Z,943.64
2023-03-11T08:55:09.983Z,943.67
2023-03-11T08:56:09.950Z,943.68
2023-03-11T08:57:09.967Z,943.69
2023-03-11T08:58:09.918Z,943.66
2023-03-11T08:59:09.933Z,943.65
2023-03-11T09:00:12.020Z,943.63
2023-03-11T09:01:09.883Z,943.67
2023-03-11T09:02:09.895Z,943.67
2023-03-11T09:03:09.872Z,943.67
2023-03-11T09:04:09.875Z,943.66
2023-03-11T09:05:09.829Z,943.68
2023-03-11T09:06:09.869Z,943.63
2023-03-11T09:07:09.803Z,943.63
2023-03-11T09:08:09.798Z,943.67
2023-03-11T09:09:09.807Z,943.67
2023-03-11T09:10:09.794Z,943.69
2023-03-11T09:11:09.745Z,943.70
2023-03-11T09:12:09.782Z,943.71
2023-03-11T09:13:09.766Z,943.71
2023-03-11T09:14:09.832Z,943.71
2023-03-11T09:15:09.724Z,943.70
2023-03-11T09:16:09.738Z,943.69
2023-03-11T09:17:09.679Z,943.68
2023-03-11T09:18:09.727Z,943.72
2023-03-11T09:19:09.679Z,943.72
2023-03-11T09:20:09.646Z,943.74
2023-03-11T09:21:09.633Z,943.73
2023-03-11T09:22:09.611Z,943.71
2023-03-11T09:23:09.619Z,943.74
2023-03-11T09:24:09.591Z,943.69
2023-03-11T09:25:09.574Z,943.68
2023-03-11T09:26:09.562Z,943.69
2023-03-11T09:27:09.575Z,943.69
2023-03-11T09:28:09.564Z,943.72
2023-03-11T09:29:09.525Z,943.70
2023-03-11T09:30:40.119Z,943.67
2023-03-11T09:31:09.775Z,943.69
2023-03-11T09:32:09.516Z,943.71
2023-03-11T09:33:09.466Z,943.75
2023-03-11T09:34:09.451Z,943.76
2023-03-11T09:35:09.463Z,943.75
2023-03-11T09:36:09.435Z,943.82
2023-03-11T09:37:09.419Z,943.80
2023-03-11T09:38:09.431Z,943.84
2023-03-11T09:39:09.391Z,943.84
2023-03-11T09:40:09.388Z,943.77
2023-03-11T09:41:09.362Z,943.80
2023-03-11T09:42:09.359Z,943.81
2023-03-11T09:43:09.363Z,943.83
2023-03-11T09:44:09.333Z,943.78
2023-03-11T09:45:09.300Z,943.77
2023-03-11T09:46:09.311Z,943.79
2023-03-11T09:47:09.285Z,943.76
2023-03-11T09:48:09.295Z,943.77
2023-03-11T09:49:09.285Z,943.79
2023-03-11T09:50:09.253Z,943.85
2023-03-11T09:51:09.242Z,943.83
2023-03-11T09:52:09.241Z,943.85
2023-03-11T09:53:09.221Z,943.81
2023-03-11T09:54:09.185Z,943.87
2023-03-11T09:55:09.190Z,943.88
2023-03-11T09:56:09.167Z,943.87
2023-03-11T09:57:09.145Z,943.94
2023-03-11T09:58:09.158Z,943.92
2023-03-11T09:59:09.126Z,943.94
2023-03-11T10:00:09.115Z,943.96
2023-03-11T10:01:09.124Z,943.96
2023-03-11T10:02:09.170Z,943.97
2023-03-11T10:03:09.191Z,943.98
2023-03-11T10:04:09.081Z,944.04
2023-03-11T10:05:09.053Z,944.07
2023-03-11T10:06:09.025Z,944.00
2023-03-11T10:07:09.008Z,944.03
2023-03-11T10:08:09.007Z,944.00
2023-03-11T10:09:09.020Z,944.02
2023-03-11T10:10:08.987Z,944.00
2023-03-11T10:11:08.970Z,944.02
2023-03-11T10:12:08.957Z,944.05
2023-03-11T10:13:08.956Z,944.06
2023-03-11T10:14:08.935Z,944.06
2023-03-11T10:15:08.907Z,943.99
2023-03-11T10:16:09.000Z,944.01
2023-03-11T10:17:08.894Z,944.04
2023-03-11T10:18:08.889Z,944.01
2023-03-11T10:19:08.871Z,944.01
2023-03-11T10:20:08.895Z,944.03
2023-03-11T10:21:08.835Z,944.08
2023-03-11T10:22:08.813Z,944.06
2023-03-11T10:23:08.830Z,944.06
2023-03-11T10:24:08.803Z,944.06
2023-03-11T10:25:08.779Z,944.07
2023-03-11T10:26:08.793Z,944.09
2023-03-11T10:27:08.768Z,944.13
2023-03-11T10:28:08.776Z,944.12
2023-03-11T10:29:08.730Z,944.13
2023-03-11T10:30:08.709Z,944.15
2023-03-11T10:31:08.699Z,944.06
2023-03-11T10:32:08.702Z,944.10
2023-03-11T10:33:08.776Z,944.10
2023-03-11T10:34:08.697Z,944.11
2023-03-11T10:35:08.661Z,944.08
2023-03-11T10:36:08.730Z,944.09
2023-03-11T10:37:08.627Z,944.13
2023-03-11T10:38:08.617Z,944.13
2023-03-11T10:39:08.627Z,944.10
2023-03-11T10:40:08.596Z,944.18
2023-03-11T10:41:08.598Z,944.17
2023-03-11T10:42:08.585Z,944.17
2023-03-11T10:43:08.555Z,944.13
2023-03-11T10:44:08.542Z,944.18
2023-03-11T10:45:08.541Z,944.18
2023-03-11T10:46:08.587Z,944.20
2023-03-11T10:47:08.491Z,944.23
2023-03-11T10:48:08.516Z,944.22
2023-03-11T10:49:08.460Z,944.28
2023-03-11T10:50:08.454Z,944.24
2023-03-11T10:51:08.445Z,944.24
2023-03-11T10:52:08.444Z,944.22
2023-03-11T10:53:08.441Z,944.23
2023-03-11T10:54:08.430Z,944.29
2023-03-11T10:55:08.384Z,944.27
2023-03-11T10:56:08.399Z,944.31
2023-03-11T10:57:08.358Z,944.30
2023-03-11T10:58:08.352Z,944.30
2023-03-11T10:59:08.336Z,944.25
2023-03-11T11:00:08.315Z,944.29
2023-03-11T11:01:08.357Z,944.28
2023-03-11T11:02:08.296Z,944.26
2023-03-11T11:03:08.300Z,944.28
2023-03-11T11:04:08.328Z,944.31
2023-03-11T11:05:08.284Z,944.23
2023-03-11T11:06:08.260Z,944.23
2023-03-11T11:07:08.217Z,944.23
2023-03-11T11:08:08.228Z,944.30
2023-03-11T11:09:08.203Z,944.27
2023-03-11T11:10:08.229Z,944.27
2023-03-11T11:11:08.187Z,944.31
2023-03-11T11:12:08.190Z,944.35
2023-03-11T11:13:08.157Z,944.36
2023-03-11T11:14:08.163Z,944.33
2023-03-11T11:15:08.131Z,944.43
2023-03-11T11:16:08.149Z,944.40
2023-03-11T11:17:08.094Z,944.45
2023-03-11T11:18:08.102Z,944.42
2023-03-11T11:19:08.088Z,944.43
2023-03-11T11:20:08.156Z,944.42
2023-03-11T11:21:08.084Z,944.44
2023-03-11T11:22:08.048Z,944.50
2023-03-11T11:23:08.025Z,944.47
2023-03-11T11:24:08.026Z,944.43
2023-03-11T11:25:08.079Z,944.42
2023-03-11T11:26:07.996Z,944.38
2023-03-11T11:27:08.005Z,944.37
2023-03-11T11:28:07.956Z,944.35
2023-03-11T11:29:09.169Z,944.37
2023-03-11T11:30:07.931Z,944.39
2023-03-11T11:31:08.015Z,944.34
2023-03-11T11:32:07.909Z,944.26
2023-03-11T11:33:07.913Z,944.35
2023-03-11T11:34:07.877Z,944.29
2023-03-11T11:35:07.916Z,944.34
2023-03-11T11:36:07.851Z,944.33
2023-03-11T11:37:07.866Z,944.32
2023-03-11T11:38:07.830Z,944.37
2023-03-11T11:39:07.806Z,944.34
2023-03-11T11:40:09.497Z,944.34
2023-03-11T11:41:07.798Z,944.38
2023-03-11T11:42:07.799Z,944.33
2023-03-11T11:43:07.788Z,944.31
2023-03-11T11:44:07.756Z,944.34
2023-03-11T11:45:07.736Z,944.35
2023-03-11T11:46:07.796Z,944.30
2023-03-11T11:47:07.713Z,944.30
2023-03-11T11:48:07.703Z,944.29
2023-03-11T11:49:07.690Z,944.31
2023-03-11T11:50:07.684Z,944.28
2023-03-11T11:51:07.688Z,944.20
2023-03-11T11:52:07.626Z,944.28
2023-03-11T11:53:07.645Z,944.22
2023-03-11T11:54:07.607Z,944.27
2023-03-11T11:55:07.608Z,944.30
2023-03-11T11:56:07.601Z,944.31
2023-03-11T11:57:07.580Z,944.31
2023-03-11T11:58:07.592Z,944.24
2023-03-11T11:59:07.553Z,944.26
2023-03-11T12:00:07.553Z,944.27
2023-03-11T12:01:07.545Z,944.24
2023-03-11T12:02:07.528Z,944.28
2023-03-11T12:03:07.513Z,944.29
2023-03-11T12:04:07.560Z,944.24
2023-03-11T12:05:07.533Z,944.26
2023-03-11T12:06:07.469Z,944.29
2023-03-11T12:07:07.458Z,944.28
2023-03-11T12:08:07.418Z,944.29
2023-03-11T12:09:07.446Z,944.34
2023-03-11T12:10:21.664Z,944.29
2023-03-11T12:11:07.411Z,944.28
2023-03-11T12:12:07.397Z,944.31
2023-03-11T12:13:07.398Z,944.30
2023-03-11T12:14:07.385Z,944.32
2023-03-11T12:15:07.361Z,944.35
2023-03-11T12:16:07.367Z,944.29
2023-03-11T12:17:07.322Z,944.27
2023-03-11T12:18:07.314Z,944.22
2023-03-11T12:19:07.279Z,944.26
2023-03-11T12:20:07.274Z,944.23
2023-03-11T12:21:07.251Z,944.23
2023-03-11T12:22:07.292Z,944.21
2023-03-11T12:23:07.241Z,944.17
2023-03-11T12:24:07.239Z,944.17
2023-03-11T12:25:07.209Z,944.14
2023-03-11T12:26:07.187Z,944.07
2023-03-11T12:27:07.204Z,944.13
2023-03-11T12:28:07.169Z,944.13